createdAt,value
2023-01-31T00:00:41.252Z,3.18
2023-01-31T00:03:11.842Z,2.84
2023-01-31T00:05:40.144Z,2.86
2023-01-31T00:08:08.231Z,3.05
2023-01-31T00:10:37.387Z,3.11
2023-01-31T00:13:05.356Z,3.19
2023-01-31T00:15:42.055Z,3.10
2023-01-31T00:18:16.637Z,3.08
2023-01-31T00:20:51.252Z,2.96
2023-01-31T00:23:25.348Z,3.01
2023-01-31T00:25:53.351Z,3.07
2023-01-31T00:28:21.560Z,3.00
2023-01-31T00:30:50.896Z,2.88
2023-01-31T00:33:18.995Z,2.89
2023-01-31T00:35:47.183Z,2.52
2023-01-31T00:38:15.070Z,2.47
2023-01-31T00:40:43.507Z,2.31
2023-01-31T00:43:11.482Z,2.45
2023-01-31T00:45:39.585Z,2.55
2023-01-31T00:48:09.075Z,2.41
2023-01-31T00:50:37.855Z,2.21
2023-01-31T00:53:08.393Z,2.09
2023-01-31T00:55:38.528Z,2.17
2023-01-31T00:58:09.107Z,2.24
2023-01-31T01:00:40.634Z,2.26
2023-01-31T01:03:09.934Z,2.18
2023-01-31T01:05:38.803Z,2.11
2023-01-31T01:08:12.923Z,2.04
2023-01-31T01:10:41.902Z,2.00
2023-01-31T01:13:11.927Z,1.96
2023-01-31T01:15:42.105Z,1.91
2023-01-31T01:18:11.725Z,2.00
2023-01-31T01:20:40.121Z,1.89
2023-01-31T01:23:09.194Z,1.92
2023-01-31T01:25:43.842Z,2.19
2023-01-31T01:28:12.606Z,2.16
2023-01-31T01:30:40.894Z,2.17
2023-01-31T01:33:08.883Z,2.10
2023-01-31T01:35:38.124Z,2.05
2023-01-31T01:38:06.327Z,2.01
2023-01-31T01:40:38.662Z,1.98
2023-01-31T01:43:06.574Z,1.96
2023-01-31T01:45:34.669Z,1.99
2023-01-31T01:48:07.065Z,2.02
2023-01-31T01:50:41.161Z,1.97
2023-01-31T01:53:14.675Z,1.99
2023-01-31T01:55:45.887Z,2.00
2023-01-31T01:58:20.025Z,1.92
2023-01-31T02:00:49.539Z,1.96
2023-01-31T02:03:18.124Z,1.93
2023-01-31T02:05:50.796Z,1.93
2023-01-31T02:08:28.884Z,1.95
2023-01-31T02:11:00.112Z,1.89
2023-01-31T02:13:41.138Z,1.79
2023-01-31T02:16:09.446Z,1.89
2023-01-31T02:18:37.594Z,2.20
2023-01-31T02:21:37.607Z,2.30
2023-01-31T02:24:29.249Z,2.27
2023-01-31T02:27:14.933Z,2.27
2023-01-31T02:30:29.701Z,2.42
2023-01-31T02:33:11.689Z,2.46
2023-01-31T02:35:53.405Z,2.51
2023-01-31T02:38:36.730Z,2.62
2023-01-31T02:41:17.106Z,2.63
2023-01-31T02:44:10.613Z,2.71
2023-01-31T02:47:01.811Z,2.75
2023-01-31T02:49:39.604Z,2.79
2023-01-31T02:52:20.421Z,2.84
2023-01-31T02:55:14.029Z,2.90
2023-01-31T02:57:44.379Z,2.95
2023-01-31T03:00:14.840Z,2.98
2023-01-31T03:02:42.863Z,3.03
2023-01-31T03:05:18.214Z,2.94
2023-01-31T03:07:49.387Z,3.00
2023-01-31T03:10:47.856Z,3.05
2023-01-31T03:13:46.143Z,3.14
2023-01-31T03:16:43.544Z,3.23
2023-01-31T03:19:17.594Z,3.27
2023-01-31T03:21:50.313Z,3.31
2023-01-31T03:24:20.831Z,3.43
2023-01-31T03:26:49.269Z,3.53
2023-01-31T03:29:20.420Z,3.55
2023-01-31T03:31:53.335Z,3.52
2023-01-31T03:34:21.935Z,3.53
2023-01-31T03:36:57.227Z,3.55
2023-01-31T03:39:37.629Z,3.53
2023-01-31T03:42:09.149Z,3.68
2023-01-31T03:44:45.833Z,3.77
2023-01-31T03:47:19.049Z,3.82
2023-01-31T03:49:49.185Z,3.90
2023-01-31T03:52:24.290Z,4.03
2023-01-31T03:54:56.308Z,4.03
2023-01-31T03:57:27.041Z,4.07
2023-01-31T03:59:59.370Z,4.14
2023-01-31T04:02:34.272Z,4.19
2023-01-31T04:05:09.254Z,4.24
2023-01-31T04:07:41.221Z,4.29
2023-01-31T04:10:13.191Z,4.37
2023-01-31T04:12:41.279Z,4.32
2023-01-31T04:15:11.260Z,4.29
2023-01-31T04:17:39.349Z,4.38
2023-01-31T04:20:10.061Z,4.36
2023-01-31T04:22:39.863Z,4.43
2023-01-31T04:25:09.104Z,4.38
2023-01-31T04:27:37.700Z,4.43
2023-01-31T04:30:06.769Z,4.38
2023-01-31T04:32:34.767Z,4.47
2023-01-31T04:35:02.969Z,4.38
2023-01-31T04:37:31.102Z,4.36
2023-01-31T04:40:00.471Z,4.41
2023-01-31T04:42:28.607Z,4.44
2023-01-31T04:44:56.636Z,4.42
2023-01-31T04:47:24.564Z,4.45
2023-01-31T04:49:52.574Z,4.45
2023-01-31T04:52:20.503Z,4.30
2023-01-31T04:54:48.513Z,4.48
2023-01-31T04:57:17.720Z,4.54
2023-01-31T04:59:45.668Z,4.49
2023-01-31T05:02:15.073Z,4.55
2023-01-31T05:04:43.078Z,4.51
2023-01-31T05:07:11.153Z,4.52
2023-01-31T05:09:38.986Z,4.54
2023-01-31T05:12:07.977Z,4.56
2023-01-31T05:14:37.370Z,4.57
2023-01-31T05:17:05.777Z,4.64
2023-01-31T05:19:33.660Z,4.74
2023-01-31T05:22:01.584Z,4.77
2023-01-31T05:24:33.320Z,4.79
2023-01-31T05:27:02.683Z,4.66
2023-01-31T05:29:33.633Z,4.76
2023-01-31T05:32:06.115Z,4.69
2023-01-31T05:34:34.843Z,4.76
2023-01-31T05:37:04.088Z,4.72
2023-01-31T05:39:32.390Z,4.76
2023-01-31T05:42:02.970Z,4.79
2023-01-31T05:44:32.684Z,4.91
2023-01-31T05:47:01.605Z,4.78
2023-01-31T05:49:33.516Z,4.90
2023-01-31T05:52:02.141Z,4.92
2023-01-31T05:54:30.226Z,4.91
2023-01-31T05:57:00.309Z,4.90
2023-01-31T05:59:31.068Z,5.19
2023-01-31T06:01:59.019Z,5.18
2023-01-31T06:04:27.298Z,5.21
2023-01-31T06:06:56.666Z,5.20
2023-01-31T06:09:25.689Z,5.28
2023-01-31T06:11:53.793Z,5.28
2023-01-31T06:14:21.798Z,5.29
2023-01-31T06:16:49.811Z,5.34
2023-01-31T06:19:17.713Z,5.33
2023-01-31T06:21:46.610Z,5.37
2023-01-31T06:24:15.841Z,5.44
2023-01-31T06:26:43.834Z,5.40
2023-01-31T06:29:12.024Z,5.40
2023-01-31T06:31:40.248Z,5.39
2023-01-31T06:34:08.341Z,5.34
2023-01-31T06:36:37.325Z,5.43
2023-01-31T06:39:06.510Z,5.33
2023-01-31T06:41:35.888Z,5.42
2023-01-31T06:44:04.089Z,5.44
2023-01-31T06:46:32.925Z,5.45
2023-01-31T06:49:03.183Z,5.53
2023-01-31T06:51:31.720Z,5.45
2023-01-31T06:54:00.711Z,5.55
2023-01-31T06:56:28.663Z,5.46
2023-01-31T06:58:58.110Z,5.53
2023-01-31T07:01:26.880Z,5.62
2023-01-31T07:03:54.858Z,5.52
2023-01-31T07:06:23.021Z,5.54
2023-01-31T07:08:51.071Z,5.60
2023-01-31T07:11:19.267Z,5.58
2023-01-31T07:13:47.975Z,5.55
2023-01-31T07:16:18.342Z,5.59
2023-01-31T07:18:46.517Z,5.60
2023-01-31T07:21:14.586Z,5.59
2023-01-31T07:23:45.538Z,5.66
2023-01-31T07:26:15.837Z,5.65
2023-01-31T07:28:43.790Z,5.70
2023-01-31T07:31:14.186Z,5.69
2023-01-31T07:33:43.585Z,5.67
2023-01-31T07:36:15.543Z,5.66
2023-01-31T07:38:45.525Z,5.70
2023-01-31T07:41:14.384Z,5.65
2023-01-31T07:43:43.341Z,5.72
2023-01-31T07:46:11.501Z,5.74
2023-01-31T07:48:45.012Z,5.73
2023-01-31T07:51:14.220Z,5.70
2023-01-31T07:53:44.038Z,5.71
2023-01-31T07:56:15.007Z,5.71
2023-01-31T07:58:44.650Z,5.76
2023-01-31T08:01:36.843Z,5.75
2023-01-31T08:04:20.161Z,5.79
2023-01-31T08:06:49.581Z,5.80
2023-01-31T08:09:17.451Z,5.73
2023-01-31T08:11:46.090Z,5.79
2023-01-31T08:14:15.627Z,5.80
2023-01-31T08:16:44.617Z,5.80
2023-01-31T08:19:14.171Z,5.70
2023-01-31T08:21:42.701Z,5.90
2023-01-31T08:24:11.074Z,5.79
2023-01-31T08:26:39.198Z,5.83
2023-01-31T08:29:07.169Z,5.92
2023-01-31T08:31:35.300Z,5.89
2023-01-31T08:34:03.323Z,5.97
2023-01-31T08:36:33.142Z,5.82
2023-01-31T08:39:01.815Z,5.99
2023-01-31T08:41:31.426Z,5.87
2023-01-31T08:44:00.415Z,6.01
2023-01-31T08:46:32.371Z,5.99
2023-01-31T08:49:01.839Z,5.97
2023-01-31T08:51:30.224Z,6.02
2023-01-31T08:53:59.695Z,6.10
2023-01-31T08:56:28.042Z,6.05
2023-01-31T08:58:58.799Z,6.12
2023-01-31T09:01:27.419Z,6.03
2023-01-31T09:03:59.241Z,6.16
2023-01-31T09:06:29.128Z,6.15
2023-01-31T09:08:59.936Z,6.19
2023-01-31T09:11:29.029Z,6.21
2023-01-31T09:13:57.564Z,6.19
2023-01-31T09:16:25.603Z,6.24
2023-01-31T09:18:54.435Z,6.21
2023-01-31T09:21:23.746Z,6.33
2023-01-31T09:23:57.054Z,6.32
2023-01-31T09:26:26.787Z,6.30
2023-01-31T09:29:01.529Z,6.33
2023-01-31T09:31:30.411Z,6.39
2023-01-31T09:33:59.137Z,6.46
2023-01-31T09:36:27.791Z,6.42
2023-01-31T09:38:57.153Z,6.47
2023-01-31T09:41:33.520Z,6.58
2023-01-31T09:44:05.309Z,6.58
2023-01-31T09:46:38.116Z,6.50
2023-01-31T09:49:11.790Z,6.62
2023-01-31T09:51:41.375Z,6.66
2023-01-31T09:54:19.696Z,6.60
2023-01-31T09:56:55.959Z,6.57
2023-01-31T09:59:28.584Z,6.60
2023-01-31T10:02:04.310Z,6.60
2023-01-31T10:04:55.174Z,6.58
2023-01-31T10:07:30.549Z,6.56
2023-01-31T10:10:10.103Z,6.63
2023-01-31T10:12:46.108Z,6.63
2023-01-31T10:15:19.052Z,6.67
2023-01-31T10:17:52.880Z,6.69
2023-01-31T10:20:25.242Z,6.77
2023-01-31T10:23:02.553Z,6.72
2023-01-31T10:25:38.393Z,6.84
2023-01-31T10:28:13.694Z,6.85
2023-01-31T10:30:47.307Z,6.89
2023-01-31T10:33:28.105Z,6.76
2023-01-31T10:35:58.532Z,6.66
2023-01-31T10:38:34.439Z,6.55
2023-01-31T10:41:14.172Z,6.52
2023-01-31T10:43:51.035Z,6.41
2023-01-31T10:46:21.973Z,6.41
2023-01-31T10:48:51.616Z,6.33
2023-01-31T10:51:35.076Z,6.32
2023-01-31T10:54:17.691Z,6.31
2023-01-31T10:56:48.567Z,6.29
2023-01-31T10:59:27.449Z,6.34
2023-01-31T11:01:55.763Z,6.20
2023-01-31T11:04:39.469Z,6.28
2023-01-31T11:07:07.958Z,6.23
2023-01-31T11:09:42.103Z,6.36
2023-01-31T11:12:13.370Z,6.37
2023-01-31T11:14:45.516Z,6.21
2023-01-31T11:17:18.476Z,6.32
2023-01-31T11:19:50.480Z,6.27
2023-01-31T11:22:25.519Z,6.39
2023-01-31T11:24:54.943Z,6.43
2023-01-31T11:27:30.899Z,6.34
2023-01-31T11:30:01.101Z,6.42
2023-01-31T11:32:31.062Z,6.38
2023-01-31T11:35:03.653Z,6.32
2023-01-31T11:37:34.708Z,6.46
2023-01-31T11:40:10.551Z,6.50
2023-01-31T11:42:53.691Z,6.50
2023-01-31T11:45:27.724Z,6.45
2023-01-31T11:47:58.618Z,6.37
2023-01-31T11:50:34.315Z,6.48
2023-01-31T11:53:04.376Z,6.49
2023-01-31T11:55:40.566Z,6.48
2023-01-31T11:58:20.983Z,6.58
2023-01-31T12:01:02.413Z,6.54
2023-01-31T12:03:33.828Z,6.68
2023-01-31T12:06:07.330Z,6.76
2023-01-31T12:08:37.782Z,6.88
2023-01-31T12:11:59.226Z,7.03
2023-01-31T12:15:00.530Z,6.96
2023-01-31T12:17:33.057Z,7.14
2023-01-31T12:20:28.380Z,7.26
2023-01-31T12:23:24.653Z,7.33
2023-01-31T12:26:42.255Z,7.50
2023-01-31T12:29:31.977Z,7.53
2023-01-31T12:32:18.686Z,7.46
2023-01-31T12:35:12.033Z,7.53
2023-01-31T12:37:53.069Z,7.48
2023-01-31T12:40:38.433Z,7.60
2023-01-31T12:43:26.605Z,7.45
2023-01-31T12:46:07.334Z,7.64
2023-01-31T12:49:11.314Z,7.78
2023-01-31T12:51:50.164Z,7.83
2023-01-31T12:54:41.688Z,7.76
2023-01-31T12:57:24.461Z,7.82
2023-01-31T13:00:03.386Z,8.02
2023-01-31T13:02:42.066Z,8.17
2023-01-31T13:05:28.571Z,8.16
2023-01-31T13:08:03.769Z,8.23
2023-01-31T13:10:38.955Z,8.21
2023-01-31T13:13:16.920Z,8.14
2023-01-31T13:15:50.364Z,8.04
2023-01-31T13:18:19.750Z,8.06
2023-01-31T13:20:53.368Z,8.11
2023-01-31T13:23:29.951Z,8.12
2023-01-31T13:26:03.609Z,8.10
2023-01-31T13:28:37.146Z,8.08
2023-01-31T13:31:09.619Z,8.21
2023-01-31T13:33:41.381Z,8.31
2023-01-31T13:36:24.301Z,8.24
2023-01-31T13:38:54.327Z,8.23
2023-01-31T13:41:29.122Z,8.24
2023-01-31T13:43:59.005Z,8.31
2023-01-31T13:46:33.580Z,8.26
2023-01-31T13:49:06.824Z,8.31
2023-01-31T13:51:42.117Z,8.33
2023-01-31T13:54:23.587Z,8.30
2023-01-31T13:56:55.182Z,8.32
2023-01-31T13:59:25.295Z,8.34
2023-01-31T14:01:56.002Z,8.39
2023-01-31T14:04:39.842Z,8.45
2023-01-31T14:07:23.955Z,8.48
2023-01-31T14:10:29.531Z,8.42
2023-01-31T14:13:27.732Z,8.39
2023-01-31T14:15:58.210Z,8.38
2023-01-31T14:18:40.528Z,8.44
2023-01-31T14:21:54.153Z,8.47
2023-01-31T14:25:04.699Z,8.48
2023-01-31T14:27:37.831Z,8.39
2023-01-31T14:30:18.015Z,8.44
2023-01-31T14:32:49.967Z,8.45
2023-01-31T14:35:36.497Z,8.42
2023-01-31T14:38:14.906Z,8.45
2023-01-31T14:40:50.065Z,8.41
2023-01-31T14:43:42.776Z,8.44
2023-01-31T14:46:28.069Z,8.39
2023-01-31T14:49:22.522Z,8.35
2023-01-31T14:52:26.264Z,8.26
2023-01-31T14:55:10.428Z,8.32
2023-01-31T14:57:44.044Z,8.24
2023-01-31T15:00:28.135Z,8.23
2023-01-31T15:03:03.329Z,8.22
2023-01-31T15:05:45.485Z,8.19
2023-01-31T15:08:35.020Z,8.17
2023-01-31T15:11:04.814Z,8.23
2023-01-31T15:13:58.267Z,8.24
2023-01-31T15:16:30.017Z,8.12
2023-01-31T15:19:06.613Z,8.18
2023-01-31T15:21:40.311Z,8.11
2023-01-31T15:24:17.443Z,7.99
2023-01-31T15:26:46.934Z,8.02
2023-01-31T15:29:20.647Z,7.99
2023-01-31T15:31:53.355Z,7.98
2023-01-31T15:34:24.907Z,7.98
2023-01-31T15:37:02.134Z,8.00
2023-01-31T15:39:35.448Z,7.95
2023-01-31T15:42:22.016Z,7.76
2023-01-31T15:44:50.041Z,7.81
2023-01-31T15:47:24.557Z,7.78
2023-01-31T15:49:52.789Z,7.85
2023-01-31T15:52:22.489Z,7.84
2023-01-31T15:54:55.993Z,7.72
2023-01-31T15:57:27.619Z,7.69
2023-01-31T15:59:57.754Z,7.52
2023-01-31T16:02:31.763Z,7.43
2023-01-31T16:05:00.686Z,7.46
2023-01-31T16:07:31.744Z,7.34
2023-01-31T16:10:02.046Z,7.28
2023-01-31T16:12:32.589Z,7.13
2023-01-31T16:15:06.969Z,7.27
2023-01-31T16:17:36.625Z,7.09
2023-01-31T16:20:06.785Z,7.07
2023-01-31T16:22:34.970Z,7.09
2023-01-31T16:25:05.359Z,6.90
2023-01-31T16:27:38.813Z,6.94
2023-01-31T16:30:07.910Z,6.97
2023-01-31T16:32:41.819Z,6.86
2023-01-31T16:35:24.734Z,6.75
2023-01-31T16:38:07.879Z,6.78
2023-01-31T16:40:38.423Z,6.63
2023-01-31T16:43:12.373Z,6.49
2023-01-31T16:45:51.882Z,6.49
2023-01-31T16:48:28.391Z,6.49
2023-01-31T16:50:58.577Z,6.58
2023-01-31T16:53:31.962Z,6.45
2023-01-31T16:56:22.038Z,6.44
2023-01-31T16:58:55.636Z,6.28
2023-01-31T17:01:28.214Z,6.32
2023-01-31T17:04:07.216Z,6.41
2023-01-31T17:06:42.671Z,6.42
2023-01-31T17:09:19.218Z,6.40
2023-01-31T17:11:48.080Z,6.21
2023-01-31T17:14:16.184Z,6.29
2023-01-31T17:16:44.342Z,6.38
2023-01-31T17:19:13.738Z,6.39
2023-01-31T17:21:43.903Z,6.26
2023-01-31T17:24:14.734Z,6.12
2023-01-31T17:26:45.181Z,6.24
2023-01-31T17:29:13.623Z,6.30
2023-01-31T17:31:42.400Z,6.22
2023-01-31T17:34:15.803Z,6.25
2023-01-31T17:36:45.555Z,6.15
2023-01-31T17:39:13.745Z,6.12
2023-01-31T17:41:42.173Z,6.25
2023-01-31T17:44:14.513Z,6.17
2023-01-31T17:46:44.324Z,6.13
2023-01-31T17:49:13.937Z,6.12
2023-01-31T17:51:46.048Z,6.07
2023-01-31T17:54:17.499Z,6.18
2023-01-31T17:56:45.772Z,6.08
2023-01-31T17:59:21.801Z,6.00
2023-01-31T18:01:54.657Z,6.11
2023-01-31T18:04:24.127Z,6.11
2023-01-31T18:06:53.246Z,6.10
2023-01-31T18:09:21.351Z,6.04
2023-01-31T18:11:49.519Z,6.04
2023-01-31T18:14:17.598Z,5.93
2023-01-31T18:16:45.557Z,6.00
2023-01-31T18:19:14.423Z,5.85
2023-01-31T18:21:54.405Z,6.07
2023-01-31T18:24:22.967Z,6.04
2023-01-31T18:26:51.026Z,5.95
2023-01-31T18:29:21.206Z,5.89
2023-01-31T18:31:50.093Z,5.88
2023-01-31T18:34:18.266Z,5.90
2023-01-31T18:36:49.190Z,5.81
2023-01-31T18:39:17.138Z,5.72
2023-01-31T18:41:45.112Z,5.79
2023-01-31T18:44:13.305Z,5.82
2023-01-31T18:46:41.417Z,5.95
2023-01-31T18:49:09.487Z,6.04
2023-01-31T18:51:37.440Z,5.91
2023-01-31T18:54:07.981Z,5.96
2023-01-31T18:56:41.165Z,5.95
2023-01-31T18:59:11.166Z,5.99
2023-01-31T19:01:43.525Z,5.96
2023-01-31T19:04:11.734Z,5.90
2023-01-31T19:06:41.189Z,6.03
2023-01-31T19:09:11.784Z,6.00
2023-01-31T19:11:46.892Z,5.98
2023-01-31T19:14:16.231Z,5.96
2023-01-31T19:16:46.039Z,6.00
2023-01-31T19:19:15.177Z,5.91
2023-01-31T19:21:51.281Z,5.84
2023-01-31T19:24:21.476Z,5.75
2023-01-31T19:26:50.176Z,5.77
2023-01-31T19:29:18.389Z,5.55
2023-01-31T19:31:48.517Z,5.72
2023-01-31T19:34:16.637Z,5.72
2023-01-31T19:36:49.528Z,5.82
2023-01-31T19:39:28.063Z,5.82
2023-01-31T19:41:58.512Z,5.85
2023-01-31T19:44:26.795Z,5.83
2023-01-31T19:47:02.975Z,5.73
2023-01-31T19:49:33.218Z,5.70
2023-01-31T19:52:01.154Z,5.63
2023-01-31T19:54:30.681Z,5.65
2023-01-31T19:56:58.809Z,5.65
2023-01-31T19:59:27.977Z,5.76
2023-01-31T20:01:57.374Z,5.71
2023-01-31T20:04:25.812Z,5.67
2023-01-31T20:06:54.030Z,5.70
2023-01-31T20:09:22.248Z,5.51
2023-01-31T20:11:54.050Z,5.58
2023-01-31T20:14:25.361Z,5.59
2023-01-31T20:16:53.605Z,5.65
2023-01-31T20:19:23.664Z,5.68
2023-01-31T20:21:51.585Z,5.50
2023-01-31T20:24:19.863Z,5.64
2023-01-31T20:26:55.609Z,5.46
2023-01-31T20:29:23.723Z,5.57
2023-01-31T20:31:52.224Z,5.50
2023-01-31T20:34:20.552Z,5.48
2023-01-31T20:36:49.024Z,5.50
2023-01-31T20:39:17.227Z,5.45
2023-01-31T20:41:46.198Z,5.44
2023-01-31T20:44:16.166Z,5.64
2023-01-31T20:46:44.437Z,5.62
2023-01-31T20:49:12.763Z,5.75
2023-01-31T20:51:43.287Z,5.65
2023-01-31T20:54:12.804Z,5.58
2023-01-31T20:56:48.573Z,5.64
2023-01-31T20:59:20.463Z,5.73
2023-01-31T21:01:49.511Z,5.60
2023-01-31T21:04:18.895Z,5.61
2023-01-31T21:06:48.359Z,5.59
2023-01-31T21:09:19.180Z,5.68
2023-01-31T21:11:51.105Z,5.47
2023-01-31T21:14:20.922Z,5.49
2023-01-31T21:16:50.297Z,5.54
2023-01-31T21:19:38.777Z,5.53
2023-01-31T21:22:08.220Z,5.55
2023-01-31T21:24:36.984Z,5.69
2023-01-31T21:27:10.064Z,5.55
2023-01-31T21:29:41.819Z,5.47
2023-01-31T21:32:13.898Z,5.44
2023-01-31T21:34:44.681Z,5.28
2023-01-31T21:37:13.089Z,5.28
2023-01-31T21:39:45.164Z,5.50
2023-01-31T21:42:19.692Z,5.43
2023-01-31T21:44:49.377Z,5.35
2023-01-31T21:47:18.723Z,5.51
2023-01-31T21:49:48.588Z,5.50
2023-01-31T21:52:16.648Z,5.39
2023-01-31T21:54:45.798Z,5.46
2023-01-31T21:57:14.053Z,5.56
2023-01-31T21:59:42.847Z,5.48
2023-01-31T22:02:12.610Z,5.55
2023-01-31T22:04:40.966Z,5.69
2023-01-31T22:07:10.221Z,5.73
2023-01-31T22:09:39.024Z,5.54
2023-01-31T22:12:08.315Z,5.51
2023-01-31T22:14:37.506Z,5.70
2023-01-31T22:17:21.219Z,5.65
2023-01-31T22:19:49.548Z,5.66
2023-01-31T22:22:17.969Z,5.50
2023-01-31T22:24:54.885Z,5.78
2023-01-31T22:27:23.036Z,5.81
2023-01-31T22:29:54.169Z,5.76
2023-01-31T22:32:26.553Z,5.76
2023-01-31T22:34:54.967Z,5.85
2023-01-31T22:37:23.487Z,5.96
2023-01-31T22:39:59.724Z,5.91
2023-01-31T22:42:31.941Z,5.98
2023-01-31T22:45:07.335Z,5.82
2023-01-31T22:47:36.812Z,5.91
2023-01-31T22:50:05.201Z,5.85
2023-01-31T22:52:43.265Z,5.83
2023-01-31T22:55:12.865Z,5.82
2023-01-31T22:57:42.005Z,5.66
2023-01-31T23:00:11.599Z,5.66
2023-01-31T23:02:41.093Z,5.78
2023-01-31T23:05:10.528Z,5.72
2023-01-31T23:07:38.462Z,5.73
2023-01-31T23:10:14.634Z,5.62
2023-01-31T23:12:47.410Z,5.72
2023-01-31T23:15:19.859Z,5.49
2023-01-31T23:17:53.659Z,5.67
2023-01-31T23:20:24.820Z,5.67
2023-01-31T23:22:58.102Z,5.61
2023-01-31T23:25:27.740Z,5.64
2023-01-31T23:35:32.684Z,5.62
2023-01-31T23:38:00.755Z,5.78
2023-01-31T23:40:34.446Z,5.81
2023-01-31T23:43:04.919Z,5.81
2023-01-31T23:45:33.262Z,5.68
2023-01-31T23:48:02.373Z,5.99
2023-01-31T23:50:30.405Z,5.84
2023-01-31T23:53:00.893Z,5.76
2023-01-31T23:55:30.331Z,5.91
2023-01-31T23:57:58.378Z,5.94
